sensor_id;sensor_type;location;lat;lon;timestamp;P1;durP1;ratioP1;P2;durP2;ratioP2
46491;SDS011;32206;51.446;6.792;2022-08-21T00:01:45;9.10;;;3.55;;
46491;SDS011;32206;51.446;6.792;2022-08-21T00:04:11;7.57;;;3.75;;
46491;SDS011;32206;51.446;6.792;2022-08-21T00:06:37;7.70;;;2.70;;
46491;SDS011;32206;51.446;6.792;2022-08-21T00:09:04;9.10;;;3.45;;
46491;SDS011;32206;51.446;6.792;2022-08-21T00:11:32;7.93;;;3.13;;
46491;SDS011;32206;51.446;6.792;2022-08-21T00:13:59;7.40;;;3.55;;
46491;SDS011;32206;51.446;6.792;2022-08-21T00:16:25;7.78;;;4.20;;
46491;SDS011;32206;51.446;6.792;2022-08-21T00:18:51;6.00;;;3.58;;
46491;SDS011;32206;51.446;6.792;2022-08-21T00:21:17;7.68;;;3.53;;
46491;SDS011;32206;51.446;6.792;2022-08-21T00:23:42;5.88;;;3.05;;
46491;SDS011;32206;51.446;6.792;2022-08-21T00:26:08;10.68;;;3.05;;
46491;SDS011;32206;51.446;6.792;2022-08-21T00:28:34;8.55;;;3.28;;
46491;SDS011;32206;51.446;6.792;2022-08-21T00:30:59;9.50;;;3.58;;
46491;SDS011;32206;51.446;6.792;2022-08-21T00:33:28;10.38;;;3.17;;
46491;SDS011;32206;51.446;6.792;2022-08-21T00:35:54;13.13;;;3.85;;
46491;SDS011;32206;51.446;6.792;2022-08-21T00:38:20;8.60;;;3.55;;
46491;SDS011;32206;51.446;6.792;2022-08-21T00:40:48;6.45;;;3.30;;
46491;SDS011;32206;51.446;6.792;2022-08-21T00:43:19;9.07;;;3.13;;
46491;SDS011;32206;51.446;6.792;2022-08-21T00:45:47;9.05;;;3.55;;
46491;SDS011;32206;51.446;6.792;2022-08-21T00:48:13;9.70;;;4.32;;
46491;SDS011;32206;51.446;6.792;2022-08-21T00:50:40;8.43;;;3.60;;
46491;SDS011;32206;51.446;6.792;2022-08-21T00:53:12;5.50;;;3.90;;
46491;SDS011;32206;51.446;6.792;2022-08-21T00:55:38;12.05;;;3.50;;
46491;SDS011;32206;51.446;6.792;2022-08-21T00:58:05;8.20;;;3.75;;
46491;SDS011;32206;51.446;6.792;2022-08-21T01:00:34;7.70;;;4.38;;
46491;SDS011;32206;51.446;6.792;2022-08-21T01:03:05;8.75;;;4.13;;
46491;SDS011;32206;51.446;6.792;2022-08-21T01:05:34;10.45;;;4.50;;
46491;SDS011;32206;51.446;6.792;2022-08-21T01:07:59;13.07;;;4.10;;
46491;SDS011;32206;51.446;6.792;2022-08-21T01:10:25;7.63;;;4.20;;
46491;SDS011;32206;51.446;6.792;2022-08-21T01:12:52;6.88;;;4.30;;
46491;SDS011;32206;51.446;6.792;2022-08-21T01:15:20;11.20;;;5.53;;
46491;SDS011;32206;51.446;6.792;2022-08-21T01:17:48;5.93;;;4.00;;
46491;SDS011;32206;51.446;6.792;2022-08-21T01:20:14;8.93;;;4.30;;
46491;SDS011;32206;51.446;6.792;2022-08-21T01:22:41;13.20;;;4.63;;
46491;SDS011;32206;51.446;6.792;2022-08-21T01:25:08;8.20;;;4.53;;
46491;SDS011;32206;51.446;6.792;2022-08-21T01:27:35;9.60;;;4.93;;
46491;SDS011;32206;51.446;6.792;2022-08-21T01:30:23;12.35;;;4.40;;
46491;SDS011;32206;51.446;6.792;2022-08-21T01:32:49;12.52;;;4.47;;
46491;SDS011;32206;51.446;6.792;2022-08-21T01:35:16;10.75;;;4.82;;
46491;SDS011;32206;51.446;6.792;2022-08-21T01:37:43;8.80;;;4.45;;
46491;SDS011;32206;51.446;6.792;2022-08-21T01:40:10;9.95;;;4.13;;
46491;SDS011;32206;51.446;6.792;2022-08-21T01:42:37;13.73;;;5.60;;
46491;SDS011;32206;51.446;6.792;2022-08-21T01:45:04;10.02;;;4.85;;
46491;SDS011;32206;51.446;6.792;2022-08-21T01:47:31;9.45;;;4.40;;
46491;SDS011;32206;51.446;6.792;2022-08-21T01:49:57;6.38;;;4.10;;
46491;SDS011;32206;51.446;6.792;2022-08-21T01:52:24;8.65;;;4.30;;
46491;SDS011;32206;51.446;6.792;2022-08-21T01:54:50;12.27;;;4.55;;
46491;SDS011;32206;51.446;6.792;2022-08-21T01:57:15;9.55;;;4.95;;
46491;SDS011;32206;51.446;6.792;2022-08-21T01:59:41;8.52;;;5.13;;
46491;SDS011;32206;51.446;6.792;2022-08-21T02:02:07;8.52;;;4.30;;
46491;SDS011;32206;51.446;6.792;2022-08-21T02:04:33;10.63;;;4.50;;
46491;SDS011;32206;51.446;6.792;2022-08-21T02:06:59;8.60;;;4.60;;
46491;SDS011;32206;51.446;6.792;2022-08-21T02:09:25;9.45;;;5.07;;
46491;SDS011;32206;51.446;6.792;2022-08-21T02:11:51;7.50;;;4.75;;
46491;SDS011;32206;51.446;6.792;2022-08-21T02:14:17;9.05;;;4.97;;
46491;SDS011;32206;51.446;6.792;2022-08-21T02:16:44;7.88;;;4.07;;
46491;SDS011;32206;51.446;6.792;2022-08-21T02:19:11;8.95;;;4.40;;
46491;SDS011;32206;51.446;6.792;2022-08-21T02:21:38;10.70;;;5.93;;
46491;SDS011;32206;51.446;6.792;2022-08-21T02:24:04;9.75;;;4.63;;
46491;SDS011;32206;51.446;6.792;2022-08-21T02:26:30;10.68;;;5.65;;
46491;SDS011;32206;51.446;6.792;2022-08-21T02:28:56;9.77;;;4.95;;
46491;SDS011;32206;51.446;6.792;2022-08-21T02:31:22;8.93;;;4.93;;
46491;SDS011;32206;51.446;6.792;2022-08-21T02:33:48;8.95;;;5.00;;
46491;SDS011;32206;51.446;6.792;2022-08-21T02:36:13;8.40;;;4.88;;
46491;SDS011;32206;51.446;6.792;2022-08-21T02:38:40;11.20;;;4.57;;
46491;SDS011;32206;51.446;6.792;2022-08-21T02:41:07;9.40;;;4.60;;
46491;SDS011;32206;51.446;6.792;2022-08-21T02:43:35;9.55;;;5.63;;
46491;SDS011;32206;51.446;6.792;2022-08-21T02:46:02;10.35;;;4.05;;
46491;SDS011;32206;51.446;6.792;2022-08-21T02:48:29;12.95;;;4.57;;
46491;SDS011;32206;51.446;6.792;2022-08-21T02:51:10;16.13;;;5.80;;
46491;SDS011;32206;51.446;6.792;2022-08-21T02:53:42;9.88;;;4.80;;
46491;SDS011;32206;51.446;6.792;2022-08-21T02:56:10;10.13;;;5.45;;
46491;SDS011;32206;51.446;6.792;2022-08-21T02:58:39;9.55;;;4.32;;
46491;SDS011;32206;51.446;6.792;2022-08-21T03:01:07;13.00;;;4.85;;
46491;SDS011;32206;51.446;6.792;2022-08-21T03:03:34;9.77;;;4.50;;
46491;SDS011;32206;51.446;6.792;2022-08-21T03:06:01;11.18;;;5.43;;
46491;SDS011;32206;51.446;6.792;2022-08-21T03:08:27;7.05;;;4.55;;
46491;SDS011;32206;51.446;6.792;2022-08-21T03:10:53;11.13;;;4.97;;
46491;SDS011;32206;51.446;6.792;2022-08-21T03:13:19;10.48;;;4.35;;
46491;SDS011;32206;51.446;6.792;2022-08-21T03:15:46;9.10;;;4.93;;
46491;SDS011;32206;51.446;6.792;2022-08-21T03:18:13;8.18;;;4.50;;
46491;SDS011;32206;51.446;6.792;2022-08-21T03:20:40;9.27;;;4.55;;
46491;SDS011;32206;51.446;6.792;2022-08-21T03:23:06;8.98;;;4.80;;
46491;SDS011;32206;51.446;6.792;2022-08-21T03:25:32;9.93;;;5.00;;
46491;SDS011;32206;51.446;6.792;2022-08-21T03:27:59;9.55;;;4.57;;
46491;SDS011;32206;51.446;6.792;2022-08-21T03:30:25;10.75;;;4.53;;
46491;SDS011;32206;51.446;6.792;2022-08-21T03:32:51;9.05;;;5.53;;
46491;SDS011;32206;51.446;6.792;2022-08-21T03:35:18;9.43;;;4.97;;
46491;SDS011;32206;51.446;6.792;2022-08-21T03:37:44;9.48;;;5.20;;
46491;SDS011;32206;51.446;6.792;2022-08-21T03:40:15;7.53;;;5.10;;
46491;SDS011;32206;51.446;6.792;2022-08-21T03:42:43;15.32;;;5.28;;
46491;SDS011;32206;51.446;6.792;2022-08-21T03:45:12;10.55;;;6.10;;
46491;SDS011;32206;51.446;6.792;2022-08-21T03:47:38;10.18;;;5.28;;
46491;SDS011;32206;51.446;6.792;2022-08-21T03:50:04;10.02;;;6.30;;
46491;SDS011;32206;51.446;6.792;2022-08-21T03:52:30;13.60;;;5.72;;
46491;SDS011;32206;51.446;6.792;2022-08-21T03:54:56;10.40;;;6.20;;
46491;SDS011;32206;51.446;6.792;2022-08-21T03:57:21;9.10;;;6.18;;
46491;SDS011;32206;51.446;6.792;2022-08-21T03:59:47;11.55;;;6.53;;
46491;SDS011;32206;51.446;6.792;2022-08-21T04:02:13;11.75;;;5.93;;
46491;SDS011;32206;51.446;6.792;2022-08-21T04:04:43;13.73;;;6.85;;
46491;SDS011;32206;51.446;6.792;2022-08-21T04:07:08;10.77;;;6.05;;
46491;SDS011;32206;51.446;6.792;2022-08-21T04:09:34;14.65;;;7.85;;
46491;SDS011;32206;51.446;6.792;2022-08-21T04:12:00;13.85;;;5.95;;
46491;SDS011;32206;51.446;6.792;2022-08-21T04:14:27;13.52;;;6.40;;
46491;SDS011;32206;51.446;6.792;2022-08-21T04:16:52;10.63;;;5.38;;
46491;SDS011;32206;51.446;6.792;2022-08-21T04:19:18;10.25;;;6.07;;
46491;SDS011;32206;51.446;6.792;2022-08-21T04:21:44;16.65;;;6.60;;
46491;SDS011;32206;51.446;6.792;2022-08-21T04:24:09;19.40;;;6.57;;
46491;SDS011;32206;51.446;6.792;2022-08-21T04:26:36;14.63;;;6.63;;
46491;SDS011;32206;51.446;6.792;2022-08-21T04:29:03;9.90;;;6.25;;
46491;SDS011;32206;51.446;6.792;2022-08-21T04:31:31;15.55;;;6.35;;
46491;SDS011;32206;51.446;6.792;2022-08-21T04:33:58;17.60;;;6.43;;
46491;SDS011;32206;51.446;6.792;2022-08-21T04:36:24;10.18;;;6.45;;
46491;SDS011;32206;51.446;6.792;2022-08-21T04:38:50;10.05;;;6.47;;
46491;SDS011;32206;51.446;6.792;2022-08-21T04:41:16;13.20;;;6.85;;
46491;SDS011;32206;51.446;6.792;2022-08-21T04:43:42;10.25;;;6.35;;
46491;SDS011;32206;51.446;6.792;2022-08-21T04:46:07;12.75;;;7.25;;
46491;SDS011;32206;51.446;6.792;2022-08-21T04:48:33;15.00;;;7.53;;
46491;SDS011;32206;51.446;6.792;2022-08-21T04:51:04;13.18;;;7.28;;
46491;SDS011;32206;51.446;6.792;2022-08-21T04:53:44;10.80;;;7.00;;
46491;SDS011;32206;51.446;6.792;2022-08-21T04:56:25;12.30;;;7.05;;
46491;SDS011;32206;51.446;6.792;2022-08-21T04:58:54;11.07;;;6.97;;
46491;SDS011;32206;51.446;6.792;2022-08-21T05:01:24;11.38;;;7.45;;
46491;SDS011;32206;51.446;6.792;2022-08-21T05:03:55;12.35;;;7.97;;
46491;SDS011;32206;51.446;6.792;2022-08-21T05:06:23;11.75;;;7.35;;
46491;SDS011;32206;51.446;6.792;2022-08-21T05:08:50;14.43;;;7.60;;
46491;SDS011;32206;51.446;6.792;2022-08-21T05:11:17;11.68;;;7.68;;
46491;SDS011;32206;51.446;6.792;2022-08-21T05:13:44;14.52;;;8.40;;
46491;SDS011;32206;51.446;6.792;2022-08-21T05:16:10;11.88;;;7.78;;
46491;SDS011;32206;51.446;6.792;2022-08-21T05:18:37;19.60;;;8.70;;
46491;SDS011;32206;51.446;6.792;2022-08-21T05:21:02;16.42;;;8.45;;
46491;SDS011;32206;51.446;6.792;2022-08-21T05:23:29;16.40;;;8.60;;
46491;SDS011;32206;51.446;6.792;2022-08-21T05:25:54;16.52;;;8.60;;
46491;SDS011;32206;51.446;6.792;2022-08-21T05:28:20;11.50;;;8.23;;
46491;SDS011;32206;51.446;6.792;2022-08-21T05:30:46;18.85;;;10.45;;
46491;SDS011;32206;51.446;6.792;2022-08-21T05:33:12;13.95;;;8.43;;
46491;SDS011;32206;51.446;6.792;2022-08-21T05:35:38;17.20;;;8.82;;
46491;SDS011;32206;51.446;6.792;2022-08-21T05:38:04;12.68;;;8.18;;
46491;SDS011;32206;51.446;6.792;2022-08-21T05:40:31;16.40;;;9.65;;
46491;SDS011;32206;51.446;6.792;2022-08-21T05:42:57;13.55;;;8.55;;
46491;SDS011;32206;51.446;6.792;2022-08-21T05:45:26;18.83;;;8.93;;
46491;SDS011;32206;51.446;6.792;2022-08-21T05:47:53;18.30;;;7.97;;
46491;SDS011;32206;51.446;6.792;2022-08-21T05:50:19;14.50;;;9.10;;
46491;SDS011;32206;51.446;6.792;2022-08-21T05:52:45;12.80;;;7.78;;
46491;SDS011;32206;51.446;6.792;2022-08-21T05:55:11;12.30;;;8.63;;
46491;SDS011;32206;51.446;6.792;2022-08-21T05:57:36;12.45;;;7.78;;
46491;SDS011;32206;51.446;6.792;2022-08-21T06:00:06;12.60;;;7.72;;
46491;SDS011;32206;51.446;6.792;2022-08-21T06:02:33;14.77;;;7.40;;
46491;SDS011;32206;51.446;6.792;2022-08-21T06:04:59;12.55;;;7.20;;
46491;SDS011;32206;51.446;6.792;2022-08-21T06:07:24;11.20;;;7.55;;
46491;SDS011;32206;51.446;6.792;2022-08-21T06:09:50;15.40;;;7.82;;
46491;SDS011;32206;51.446;6.792;2022-08-21T06:12:16;15.75;;;8.10;;
46491;SDS011;32206;51.446;6.792;2022-08-21T06:14:42;8.18;;;6.97;;
46491;SDS011;32206;51.446;6.792;2022-08-21T06:17:09;13.60;;;8.10;;
46491;SDS011;32206;51.446;6.792;2022-08-21T06:19:36;15.57;;;8.15;;
46491;SDS011;32206;51.446;6.792;2022-08-21T06:22:02;13.02;;;6.60;;
46491;SDS011;32206;51.446;6.792;2022-08-21T06:24:29;11.80;;;6.78;;
46491;SDS011;32206;51.446;6.792;2022-08-21T06:26:55;17.95;;;7.82;;
46491;SDS011;32206;51.446;6.792;2022-08-21T06:29:21;13.32;;;6.40;;
46491;SDS011;32206;51.446;6.792;2022-08-21T06:31:48;9.10;;;6.15;;
46491;SDS011;32206;51.446;6.792;2022-08-21T06:34:15;13.82;;;6.55;;
46491;SDS011;32206;51.446;6.792;2022-08-21T06:36:41;7.72;;;5.78;;
46491;SDS011;32206;51.446;6.792;2022-08-21T06:39:07;12.82;;;5.65;;
46491;SDS011;32206;51.446;6.792;2022-08-21T06:41:33;12.70;;;5.20;;
46491;SDS011;32206;51.446;6.792;2022-08-21T06:43:59;13.20;;;5.97;;
46491;SDS011;32206;51.446;6.792;2022-08-21T06:46:25;9.45;;;4.50;;
46491;SDS011;32206;51.446;6.792;2022-08-21T06:48:53;11.15;;;5.38;;
46491;SDS011;32206;51.446;6.792;2022-08-21T06:51:19;7.07;;;4.35;;
46491;SDS011;32206;51.446;6.792;2022-08-21T06:53:44;10.73;;;5.57;;
46491;SDS011;32206;51.446;6.792;2022-08-21T06:56:10;6.97;;;4.07;;
46491;SDS011;32206;51.446;6.792;2022-08-21T06:58:37;14.60;;;4.75;;
46491;SDS011;32206;51.446;6.792;2022-08-21T07:01:03;13.32;;;6.55;;
46491;SDS011;32206;51.446;6.792;2022-08-21T07:03:31;20.73;;;8.18;;
46491;SDS011;32206;51.446;6.792;2022-08-21T07:05:59;11.45;;;3.97;;
46491;SDS011;32206;51.446;6.792;2022-08-21T07:08:25;9.07;;;4.13;;
46491;SDS011;32206;51.446;6.792;2022-08-21T07:10:52;9.13;;;3.97;;
46491;SDS011;32206;51.446;6.792;2022-08-21T07:13:19;14.35;;;3.30;;
46491;SDS011;32206;51.446;6.792;2022-08-21T07:15:45;13.20;;;4.20;;
46491;SDS011;32206;51.446;6.792;2022-08-21T07:18:11;9.05;;;3.80;;
46491;SDS011;32206;51.446;6.792;2022-08-21T07:20:38;11.25;;;4.00;;
46491;SDS011;32206;51.446;6.792;2022-08-21T07:23:06;12.07;;;4.45;;
46491;SDS011;32206;51.446;6.792;2022-08-21T07:25:35;11.93;;;3.95;;
46491;SDS011;32206;51.446;6.792;2022-08-21T07:28:01;9.75;;;3.28;;
46491;SDS011;32206;51.446;6.792;2022-08-21T07:30:27;8.43;;;2.92;;
46491;SDS011;32206;51.446;6.792;2022-08-21T07:32:53;8.55;;;2.88;;
46491;SDS011;32206;51.446;6.792;2022-08-21T07:35:20;8.85;;;2.38;;
46491;SDS011;32206;51.446;6.792;2022-08-21T07:37:46;11.48;;;2.53;;
46491;SDS011;32206;51.446;6.792;2022-08-21T07:40:12;8.00;;;2.40;;
46491;SDS011;32206;51.446;6.792;2022-08-21T07:42:42;6.28;;;2.10;;
46491;SDS011;32206;51.446;6.792;2022-08-21T07:45:10;7.53;;;2.22;;
46491;SDS011;32206;51.446;6.792;2022-08-21T07:47:36;6.82;;;2.17;;
46491;SDS011;32206;51.446;6.792;2022-08-21T07:50:03;28.83;;;15.18;;
46491;SDS011;32206;51.446;6.792;2022-08-21T07:52:29;10.57;;;4.70;;
46491;SDS011;32206;51.446;6.792;2022-08-21T07:54:55;6.80;;;2.33;;
46491;SDS011;32206;51.446;6.792;2022-08-21T07:57:20;4.72;;;1.45;;
46491;SDS011;32206;51.446;6.792;2022-08-21T07:59:46;4.47;;;1.92;;
46491;SDS011;32206;51.446;6.792;2022-08-21T08:02:21;3.92;;;1.25;;
46491;SDS011;32206;51.446;6.792;2022-08-21T08:04:50;4.65;;;1.40;;
46491;SDS011;32206;51.446;6.792;2022-08-21T08:07:18;4.90;;;1.00;;
46491;SDS011;32206;51.446;6.792;2022-08-21T08:09:44;4.28;;;1.00;;
46491;SDS011;32206;51.446;6.792;2022-08-21T08:12:10;4.55;;;1.20;;
46491;SDS011;32206;51.446;6.792;2022-08-21T08:14:36;4.05;;;1.00;;
46491;SDS011;32206;51.446;6.792;2022-08-21T08:17:02;2.13;;;0.90;;
46491;SDS011;32206;51.446;6.792;2022-08-21T08:19:28;3.83;;;0.90;;
46491;SDS011;32206;51.446;6.792;2022-08-21T08:21:55;4.30;;;0.85;;
46491;SDS011;32206;51.446;6.792;2022-08-21T08:24:21;6.18;;;0.80;;
46491;SDS011;32206;51.446;6.792;2022-08-21T08:26:46;3.47;;;0.57;;
46491;SDS011;32206;51.446;6.792;2022-08-21T08:29:12;3.03;;;1.25;;
46491;SDS011;32206;51.446;6.792;2022-08-21T08:31:38;4.65;;;0.90;;
46491;SDS011;32206;51.446;6.792;2022-08-21T08:34:04;5.07;;;0.80;;
46491;SDS011;32206;51.446;6.792;2022-08-21T08:36:32;4.30;;;0.85;;
46491;SDS011;32206;51.446;6.792;2022-08-21T08:38:59;7.05;;;0.88;;
46491;SDS011;32206;51.446;6.792;2022-08-21T08:41:25;7.13;;;0.93;;
46491;SDS011;32206;51.446;6.792;2022-08-21T08:43:53;2.67;;;0.77;;
46491;SDS011;32206;51.446;6.792;2022-08-21T08:46:29;6.10;;;1.65;;
46491;SDS011;32206;51.446;6.792;2022-08-21T08:51:35;5.75;;;1.10;;
46491;SDS011;32206;51.446;6.792;2022-08-21T08:54:21;2.47;;;1.10;;
46491;SDS011;32206;51.446;6.792;2022-08-21T08:56:57;2.17;;;1.15;;
46491;SDS011;32206;51.446;6.792;2022-08-21T08:59:28;3.10;;;0.68;;
46491;SDS011;32206;51.446;6.792;2022-08-21T09:02:04;1.67;;;0.60;;
46491;SDS011;32206;51.446;6.792;2022-08-21T09:04:30;6.20;;;0.80;;
46491;SDS011;32206;51.446;6.792;2022-08-21T09:15:39;2.33;;;0.75;;
46491;SDS011;32206;51.446;6.792;2022-08-21T09:26:14;6.00;;;1.10;;
46491;SDS011;32206;51.446;6.792;2022-08-21T09:28:40;5.95;;;0.85;;
46491;SDS011;32206;51.446;6.792;2022-08-21T09:31:07;2.38;;;0.90;;
46491;SDS011;32206;51.446;6.792;2022-08-21T09:33:40;8.40;;;1.20;;
46491;SDS011;32206;51.446;6.792;2022-08-21T09:36:05;3.00;;;0.60;;
46491;SDS011;32206;51.446;6.792;2022-08-21T09:38:33;3.03;;;0.88;;
46491;SDS011;32206;51.446;6.792;2022-08-21T09:41:05;4.10;;;0.90;;
46491;SDS011;32206;51.446;6.792;2022-08-21T09:43:35;3.65;;;0.88;;
46491;SDS011;32206;51.446;6.792;2022-08-21T09:48:27;1.38;;;0.65;;
46491;SDS011;32206;51.446;6.792;2022-08-21T09:51:05;4.75;;;1.27;;
46491;SDS011;32206;51.446;6.792;2022-08-21T09:53:32;5.93;;;1.02;;
46491;SDS011;32206;51.446;6.792;2022-08-21T09:55:59;3.70;;;0.60;;
46491;SDS011;32206;51.446;6.792;2022-08-21T09:58:49;3.75;;;0.70;;
46491;SDS011;32206;51.446;6.792;2022-08-21T10:01:20;1.77;;;0.75;;
46491;SDS011;32206;51.446;6.792;2022-08-21T10:03:47;3.35;;;1.00;;
46491;SDS011;32206;51.446;6.792;2022-08-21T10:06:22;4.93;;;1.08;;
46491;SDS011;32206;51.446;6.792;2022-08-21T10:08:50;1.75;;;0.70;;
46491;SDS011;32206;51.446;6.792;2022-08-21T10:11:16;1.65;;;0.50;;
46491;SDS011;32206;51.446;6.792;2022-08-21T10:16:37;2.60;;;0.65;;
46491;SDS011;32206;51.446;6.792;2022-08-21T10:24:32;5.57;;;1.00;;
46491;SDS011;32206;51.446;6.792;2022-08-21T10:29:53;1.95;;;0.50;;
46491;SDS011;32206;51.446;6.792;2022-08-21T10:40:22;4.90;;;0.70;;
46491;SDS011;32206;51.446;6.792;2022-08-21T10:47:57;2.65;;;0.60;;
46491;SDS011;32206;51.446;6.792;2022-08-21T10:50:51;3.35;;;0.70;;
46491;SDS011;32206;51.446;6.792;2022-08-21T10:53:41;1.80;;;1.08;;
46491;SDS011;32206;51.446;6.792;2022-08-21T10:56:22;6.10;;;0.80;;
46491;SDS011;32206;51.446;6.792;2022-08-21T11:04:19;4.32;;;0.90;;
46491;SDS011;32206;51.446;6.792;2022-08-21T11:07:02;1.25;;;0.40;;
46491;SDS011;32206;51.446;6.792;2022-08-21T11:09:34;4.05;;;0.70;;
46491;SDS011;32206;51.446;6.792;2022-08-21T11:12:03;12.15;;;1.45;;
46491;SDS011;32206;51.446;6.792;2022-08-21T11:14:44;3.55;;;0.70;;
46491;SDS011;32206;51.446;6.792;2022-08-21T11:17:30;3.13;;;0.70;;
46491;SDS011;32206;51.446;6.792;2022-08-21T11:23:09;2.65;;;0.85;;
46491;SDS011;32206;51.446;6.792;2022-08-21T11:25:39;1.65;;;0.80;;
46491;SDS011;32206;51.446;6.792;2022-08-21T11:28:23;3.72;;;0.52;;
46491;SDS011;32206;51.446;6.792;2022-08-21T11:39:13;3.13;;;0.60;;
46491;SDS011;32206;51.446;6.792;2022-08-21T11:42:08;3.03;;;0.55;;
46491;SDS011;32206;51.446;6.792;2022-08-21T11:44:43;2.08;;;0.60;;
46491;SDS011;32206;51.446;6.792;2022-08-21T11:47:45;1.38;;;0.50;;
46491;SDS011;32206;51.446;6.792;2022-08-21T11:50:33;2.63;;;0.50;;
46491;SDS011;32206;51.446;6.792;2022-08-21T11:56:40;2.33;;;0.70;;
46491;SDS011;32206;51.446;6.792;2022-08-21T11:59:16;2.92;;;0.52;;
46491;SDS011;32206;51.446;6.792;2022-08-21T12:04:17;0.77;;;0.30;;
46491;SDS011;32206;51.446;6.792;2022-08-21T12:06:49;2.20;;;0.35;;
46491;SDS011;32206;51.446;6.792;2022-08-21T12:11:59;2.50;;;0.57;;
46491;SDS011;32206;51.446;6.792;2022-08-21T12:17:16;4.65;;;0.80;;
46491;SDS011;32206;51.446;6.792;2022-08-21T12:20:00;2.88;;;0.73;;
46491;SDS011;32206;51.446;6.792;2022-08-21T12:22:39;1.25;;;0.60;;
46491;SDS011;32206;51.446;6.792;2022-08-21T12:25:07;1.80;;;0.60;;
46491;SDS011;32206;51.446;6.792;2022-08-21T12:27:46;2.75;;;0.40;;
46491;SDS011;32206;51.446;6.792;2022-08-21T12:30:48;2.00;;;0.65;;
46491;SDS011;32206;51.446;6.792;2022-08-21T12:36:03;0.85;;;0.38;;
46491;SDS011;32206;51.446;6.792;2022-08-21T12:38:57;2.13;;;0.60;;
46491;SDS011;32206;51.446;6.792;2022-08-21T12:44:16;2.10;;;0.50;;
46491;SDS011;32206;51.446;6.792;2022-08-21T12:54:42;1.70;;;0.73;;
46491;SDS011;32206;51.446;6.792;2022-08-21T12:57:16;5.00;;;0.90;;
46491;SDS011;32206;51.446;6.792;2022-08-21T12:59:49;1.15;;;0.50;;
46491;SDS011;32206;51.446;6.792;2022-08-21T13:02:18;3.30;;;0.60;;
46491;SDS011;32206;51.446;6.792;2022-08-21T13:04:48;2.08;;;0.50;;
46491;SDS011;32206;51.446;6.792;2022-08-21T13:07:16;0.95;;;0.40;;
46491;SDS011;32206;51.446;6.792;2022-08-21T13:09:51;1.15;;;0.22;;
46491;SDS011;32206;51.446;6.792;2022-08-21T13:12:20;5.30;;;0.50;;
46491;SDS011;32206;51.446;6.792;2022-08-21T13:14:46;1.20;;;0.38;;
46491;SDS011;32206;51.446;6.792;2022-08-21T13:17:17;2.22;;;0.50;;
46491;SDS011;32206;51.446;6.792;2022-08-21T13:19:55;2.40;;;0.60;;
46491;SDS011;32206;51.446;6.792;2022-08-21T13:22:29;2.30;;;0.50;;
46491;SDS011;32206;51.446;6.792;2022-08-21T13:24:55;2.83;;;0.65;;
46491;SDS011;32206;51.446;6.792;2022-08-21T13:27:26;1.40;;;0.38;;
46491;SDS011;32206;51.446;6.792;2022-08-21T13:30:09;7.38;;;0.68;;
46491;SDS011;32206;51.446;6.792;2022-08-21T13:32:43;1.60;;;0.60;;
46491;SDS011;32206;51.446;6.792;2022-08-21T13:37:37;4.03;;;0.55;;
46491;SDS011;32206;51.446;6.792;2022-08-21T13:40:06;1.67;;;0.45;;
46491;SDS011;32206;51.446;6.792;2022-08-21T13:42:34;4.85;;;0.52;;
46491;SDS011;32206;51.446;6.792;2022-08-21T13:45:00;1.65;;;0.68;;
46491;SDS011;32206;51.446;6.792;2022-08-21T13:47:25;2.13;;;0.60;;
46491;SDS011;32206;51.446;6.792;2022-08-21T13:49:51;2.00;;;0.52;;
46491;SDS011;32206;51.446;6.792;2022-08-21T13:52:25;1.05;;;0.40;;
46491;SDS011;32206;51.446;6.792;2022-08-21T13:54:55;2.38;;;0.63;;
46491;SDS011;32206;51.446;6.792;2022-08-21T14:00:12;3.22;;;0.40;;
46491;SDS011;32206;51.446;6.792;2022-08-21T14:02:40;2.55;;;0.50;;
46491;SDS011;32206;51.446;6.792;2022-08-21T14:05:14;2.47;;;0.50;;
46491;SDS011;32206;51.446;6.792;2022-08-21T14:07:44;2.35;;;0.50;;
46491;SDS011;32206;51.446;6.792;2022-08-21T14:10:18;1.85;;;0.55;;
46491;SDS011;32206;51.446;6.792;2022-08-21T14:12:52;1.77;;;0.68;;
46491;SDS011;32206;51.446;6.792;2022-08-21T14:15:25;7.30;;;0.82;;
46491;SDS011;32206;51.446;6.792;2022-08-21T14:17:55;3.97;;;0.70;;
46491;SDS011;32206;51.446;6.792;2022-08-21T14:20:42;2.85;;;0.60;;
46491;SDS011;32206;51.446;6.792;2022-08-21T14:23:08;5.90;;;0.60;;
46491;SDS011;32206;51.446;6.792;2022-08-21T14:25:41;1.77;;;0.63;;
46491;SDS011;32206;51.446;6.792;2022-08-21T14:28:19;3.72;;;0.60;;
46491;SDS011;32206;51.446;6.792;2022-08-21T14:30:47;3.67;;;0.65;;
46491;SDS011;32206;51.446;6.792;2022-08-21T14:33:18;4.30;;;0.88;;
46491;SDS011;32206;51.446;6.792;2022-08-21T14:35:57;5.18;;;0.75;;
46491;SDS011;32206;51.446;6.792;2022-08-21T14:38:24;2.50;;;0.98;;
46491;SDS011;32206;51.446;6.792;2022-08-21T14:40:54;3.05;;;0.70;;
46491;SDS011;32206;51.446;6.792;2022-08-21T14:43:33;4.30;;;0.95;;
46491;SDS011;32206;51.446;6.792;2022-08-21T14:45:58;2.80;;;0.63;;
46491;SDS011;32206;51.446;6.792;2022-08-21T14:48:25;2.63;;;1.25;;
46491;SDS011;32206;51.446;6.792;2022-08-21T14:50:51;3.33;;;0.70;;
46491;SDS011;32206;51.446;6.792;2022-08-21T14:53:17;2.88;;;1.17;;
46491;SDS011;32206;51.446;6.792;2022-08-21T14:55:42;3.70;;;1.00;;
46491;SDS011;32206;51.446;6.792;2022-08-21T14:58:27;4.13;;;0.93;;
46491;SDS011;32206;51.446;6.792;2022-08-21T15:00:53;5.55;;;0.80;;
46491;SDS011;32206;51.446;6.792;2022-08-21T15:03:20;2.55;;;0.55;;
46491;SDS011;32206;51.446;6.792;2022-08-21T15:05:47;4.88;;;0.77;;
46491;SDS011;32206;51.446;6.792;2022-08-21T15:08:13;5.25;;;1.10;;
46491;SDS011;32206;51.446;6.792;2022-08-21T15:10:38;4.07;;;0.80;;
46491;SDS011;32206;51.446;6.792;2022-08-21T15:13:04;2.45;;;0.70;;
46491;SDS011;32206;51.446;6.792;2022-08-21T15:15:32;2.58;;;0.60;;
46491;SDS011;32206;51.446;6.792;2022-08-21T15:18:03;5.18;;;1.05;;
46491;SDS011;32206;51.446;6.792;2022-08-21T15:20:29;4.30;;;0.73;;
46491;SDS011;32206;51.446;6.792;2022-08-21T15:22:54;3.28;;;0.90;;
46491;SDS011;32206;51.446;6.792;2022-08-21T15:25:20;2.42;;;0.77;;
46491;SDS011;32206;51.446;6.792;2022-08-21T15:27:46;3.08;;;0.70;;
46491;SDS011;32206;51.446;6.792;2022-08-21T15:30:12;4.13;;;0.73;;
46491;SDS011;32206;51.446;6.792;2022-08-21T15:32:37;3.25;;;0.60;;
46491;SDS011;32206;51.446;6.792;2022-08-21T15:35:04;3.50;;;0.73;;
46491;SDS011;32206;51.446;6.792;2022-08-21T15:37:30;2.53;;;0.75;;
46491;SDS011;32206;51.446;6.792;2022-08-21T15:39:56;1.45;;;0.52;;
46491;SDS011;32206;51.446;6.792;2022-08-21T15:42:21;1.73;;;0.73;;
46491;SDS011;32206;51.446;6.792;2022-08-21T15:44:48;2.15;;;0.68;;
46491;SDS011;32206;51.446;6.792;2022-08-21T15:47:15;3.60;;;0.70;;
46491;SDS011;32206;51.446;6.792;2022-08-21T15:49:44;6.45;;;0.60;;
46491;SDS011;32206;51.446;6.792;2022-08-21T15:52:11;3.05;;;0.80;;
46491;SDS011;32206;51.446;6.792;2022-08-21T15:54:41;5.78;;;1.00;;
46491;SDS011;32206;51.446;6.792;2022-08-21T15:57:07;3.17;;;0.88;;
46491;SDS011;32206;51.446;6.792;2022-08-21T15:59:40;3.33;;;1.27;;
46491;SDS011;32206;51.446;6.792;2022-08-21T16:02:17;1.88;;;0.60;;
46491;SDS011;32206;51.446;6.792;2022-08-21T16:04:46;1.85;;;0.50;;
46491;SDS011;32206;51.446;6.792;2022-08-21T16:07:12;2.17;;;0.50;;
46491;SDS011;32206;51.446;6.792;2022-08-21T16:09:38;3.30;;;0.70;;
46491;SDS011;32206;51.446;6.792;2022-08-21T16:12:04;2.75;;;0.60;;
46491;SDS011;32206;51.446;6.792;2022-08-21T16:14:31;4.82;;;0.60;;
46491;SDS011;32206;51.446;6.792;2022-08-21T16:16:59;1.63;;;0.70;;
46491;SDS011;32206;51.446;6.792;2022-08-21T16:19:25;1.73;;;0.90;;
46491;SDS011;32206;51.446;6.792;2022-08-21T16:21:52;3.25;;;0.65;;
46491;SDS011;32206;51.446;6.792;2022-08-21T16:24:18;2.22;;;0.90;;
46491;SDS011;32206;51.446;6.792;2022-08-21T16:26:44;5.55;;;1.02;;